sensor_id;sensor_type;location;lat;lon;timestamp;temperature;humidity
14140;DHT22;7150;53.514;9.988;2023-05-27T00:01:58;18.40;71.40
14140;DHT22;7150;53.514;9.988;2023-05-27T00:04:24;18.40;71.60
14140;DHT22;7150;53.514;9.988;2023-05-27T00:06:49;18.40;71.70
14140;DHT22;7150;53.514;9.988;2023-05-27T00:09:15;18.30;71.70
14140;DHT22;7150;53.514;9.988;2023-05-27T00:11:41;18.40;71.80
14140;DHT22;7150;53.514;9.988;2023-05-27T00:14:06;18.30;71.70
14140;DHT22;7150;53.514;9.988;2023-05-27T00:16:32;18.40;72.00
14140;DHT22;7150;53.514;9.988;2023-05-27T00:19:01;18.30;72.00
14140;DHT22;7150;53.514;9.988;2023-05-27T00:21:27;18.30;72.10
14140;DHT22;7150;53.514;9.988;2023-05-27T00:23:52;18.30;72.00
14140;DHT22;7150;53.514;9.988;2023-05-27T00:26:18;18.30;72.10
14140;DHT22;7150;53.514;9.988;2023-05-27T00:28:43;18.20;72.10
14140;DHT22;7150;53.514;9.988;2023-05-27T00:31:09;18.30;72.10
14140;DHT22;7150;53.514;9.988;2023-05-27T00:33:34;18.20;72.70
14140;DHT22;7150;53.514;9.988;2023-05-27T00:36:00;18.20;72.30
14140;DHT22;7150;53.514;9.988;2023-05-27T00:38:25;18.10;72.10
14140;DHT22;7150;53.514;9.988;2023-05-27T00:40:53;18.10;72.30
14140;DHT22;7150;53.514;9.988;2023-05-27T00:43:18;18.10;72.40
14140;DHT22;7150;53.514;9.988;2023-05-27T00:45:44;18.10;72.60
14140;DHT22;7150;53.514;9.988;2023-05-27T00:48:10;18.00;72.50
14140;DHT22;7150;53.514;9.988;2023-05-27T00:50:35;18.10;72.70
14140;DHT22;7150;53.514;9.988;2023-05-27T00:53:02;18.10;72.80
14140;DHT22;7150;53.514;9.988;2023-05-27T00:55:27;18.00;72.60
14140;DHT22;7150;53.514;9.988;2023-05-27T00:57:53;18.10;72.80
14140;DHT22;7150;53.514;9.988;2023-05-27T01:00:20;18.10;72.80
14140;DHT22;7150;53.514;9.988;2023-05-27T01:02:46;18.00;72.70
14140;DHT22;7150;53.514;9.988;2023-05-27T01:05:14;18.00;72.80
14140;DHT22;7150;53.514;9.988;2023-05-27T01:08:04;17.90;72.80
14140;DHT22;7150;53.514;9.988;2023-05-27T01:10:40;18.00;72.80
14140;DHT22;7150;53.514;9.988;2023-05-27T01:16:11;17.90;73.00
14140;DHT22;7150;53.514;9.988;2023-05-27T01:18:37;17.90;73.10
14140;DHT22;7150;53.514;9.988;2023-05-27T01:21:07;17.90;73.10
14140;DHT22;7150;53.514;9.988;2023-05-27T01:23:35;17.90;73.20
14140;DHT22;7150;53.514;9.988;2023-05-27T01:26:04;17.90;73.20
14140;DHT22;7150;53.514;9.988;2023-05-27T01:28:30;17.90;73.20
14140;DHT22;7150;53.514;9.988;2023-05-27T01:31:02;17.90;73.10
14140;DHT22;7150;53.514;9.988;2023-05-27T01:33:34;17.90;73.10
14140;DHT22;7150;53.514;9.988;2023-05-27T01:36:07;17.90;73.00
14140;DHT22;7150;53.514;9.988;2023-05-27T01:38:36;17.90;73.00
14140;DHT22;7150;53.514;9.988;2023-05-27T01:41:03;17.80;73.00
14140;DHT22;7150;53.514;9.988;2023-05-27T01:43:29;17.80;73.00
14140;DHT22;7150;53.514;9.988;2023-05-27T01:45:55;17.80;73.00
14140;DHT22;7150;53.514;9.988;2023-05-27T01:48:21;17.80;73.00
14140;DHT22;7150;53.514;9.988;2023-05-27T01:50:46;17.80;73.00
14140;DHT22;7150;53.514;9.988;2023-05-27T01:53:12;17.80;73.00
14140;DHT22;7150;53.514;9.988;2023-05-27T01:55:37;17.70;72.90
14140;DHT22;7150;53.514;9.988;2023-05-27T01:58:03;17.70;73.00
14140;DHT22;7150;53.514;9.988;2023-05-27T02:00:29;17.70;73.00
14140;DHT22;7150;53.514;9.988;2023-05-27T02:02:55;17.70;73.10
14140;DHT22;7150;53.514;9.988;2023-05-27T02:05:20;17.70;73.20
14140;DHT22;7150;53.514;9.988;2023-05-27T02:07:46;17.70;73.20
14140;DHT22;7150;53.514;9.988;2023-05-27T02:10:11;17.60;73.30
14140;DHT22;7150;53.514;9.988;2023-05-27T02:12:37;17.60;74.00
14140;DHT22;7150;53.514;9.988;2023-05-27T02:15:03;17.60;73.30
14140;DHT22;7150;53.514;9.988;2023-05-27T02:17:28;17.60;73.40
14140;DHT22;7150;53.514;9.988;2023-05-27T02:19:54;17.60;73.40
14140;DHT22;7150;53.514;9.988;2023-05-27T02:22:21;17.50;73.50
14140;DHT22;7150;53.514;9.988;2023-05-27T02:24:46;17.50;73.60
14140;DHT22;7150;53.514;9.988;2023-05-27T02:27:12;17.50;73.40
14140;DHT22;7150;53.514;9.988;2023-05-27T02:29:38;17.50;73.60
14140;DHT22;7150;53.514;9.988;2023-05-27T02:32:03;17.50;73.60
14140;DHT22;7150;53.514;9.988;2023-05-27T02:34:29;17.50;73.70
14140;DHT22;7150;53.514;9.988;2023-05-27T02:36:54;17.50;73.70
14140;DHT22;7150;53.514;9.988;2023-05-27T02:39:20;17.50;73.70
14140;DHT22;7150;53.514;9.988;2023-05-27T02:41:46;17.40;73.60
14140;DHT22;7150;53.514;9.988;2023-05-27T02:44:12;17.50;73.70
14140;DHT22;7150;53.514;9.988;2023-05-27T02:46:37;17.40;73.60
14140;DHT22;7150;53.514;9.988;2023-05-27T02:49:03;17.40;73.70
14140;DHT22;7150;53.514;9.988;2023-05-27T02:51:29;17.30;73.80
14140;DHT22;7150;53.514;9.988;2023-05-27T02:53:54;17.30;73.90
14140;DHT22;7150;53.514;9.988;2023-05-27T02:56:20;17.30;73.90
14140;DHT22;7150;53.514;9.988;2023-05-27T02:58:46;17.30;73.90
14140;DHT22;7150;53.514;9.988;2023-05-27T03:01:12;17.30;74.00
14140;DHT22;7150;53.514;9.988;2023-05-27T03:03:37;17.30;74.10
14140;DHT22;7150;53.514;9.988;2023-05-27T03:06:03;17.30;74.20
14140;DHT22;7150;53.514;9.988;2023-05-27T03:08:28;17.20;74.20
14140;DHT22;7150;53.514;9.988;2023-05-27T03:10:54;17.20;74.30
14140;DHT22;7150;53.514;9.988;2023-05-27T03:13:19;17.20;74.40
14140;DHT22;7150;53.514;9.988;2023-05-27T03:15:45;17.20;74.50
14140;DHT22;7150;53.514;9.988;2023-05-27T03:18:10;17.20;74.60
14140;DHT22;7150;53.514;9.988;2023-05-27T03:20:36;17.20;74.60
14140;DHT22;7150;53.514;9.988;2023-05-27T03:23:01;17.20;74.60
14140;DHT22;7150;53.514;9.988;2023-05-27T03:25:27;17.20;74.70
14140;DHT22;7150;53.514;9.988;2023-05-27T03:27:54;17.20;74.70
14140;DHT22;7150;53.514;9.988;2023-05-27T03:30:19;17.20;74.80
14140;DHT22;7150;53.514;9.988;2023-05-27T03:32:45;17.10;74.80
14140;DHT22;7150;53.514;9.988;2023-05-27T03:35:11;17.10;75.00
14140;DHT22;7150;53.514;9.988;2023-05-27T03:37:36;17.10;75.00
14140;DHT22;7150;53.514;9.988;2023-05-27T03:40:02;17.10;75.00
14140;DHT22;7150;53.514;9.988;2023-05-27T03:42:28;17.10;75.10
14140;DHT22;7150;53.514;9.988;2023-05-27T03:44:54;17.10;75.10
14140;DHT22;7150;53.514;9.988;2023-05-27T03:47:19;17.10;75.10
14140;DHT22;7150;53.514;9.988;2023-05-27T03:49:47;17.10;75.30
14140;DHT22;7150;53.514;9.988;2023-05-27T03:52:13;17.10;75.30
14140;DHT22;7150;53.514;9.988;2023-05-27T03:54:38;17.10;76.00
14140;DHT22;7150;53.514;9.988;2023-05-27T03:57:04;17.10;75.30
14140;DHT22;7150;53.514;9.988;2023-05-27T03:59:29;17.10;75.30
14140;DHT22;7150;53.514;9.988;2023-05-27T04:01:55;17.10;75.30
14140;DHT22;7150;53.514;9.988;2023-05-27T04:04:20;17.10;75.40
14140;DHT22;7150;53.514;9.988;2023-05-27T04:06:46;17.10;75.50
14140;DHT22;7150;53.514;9.988;2023-05-27T04:09:11;17.10;75.50
14140;DHT22;7150;53.514;9.988;2023-05-27T04:11:37;17.10;75.50
14140;DHT22;7150;53.514;9.988;2023-05-27T04:14:02;17.10;75.60
14140;DHT22;7150;53.514;9.988;2023-05-27T04:16:29;17.10;75.60
14140;DHT22;7150;53.514;9.988;2023-05-27T04:18:56;17.10;75.50
14140;DHT22;7150;53.514;9.988;2023-05-27T04:21:22;17.20;75.60
14140;DHT22;7150;53.514;9.988;2023-05-27T04:23:47;17.20;76.00
14140;DHT22;7150;53.514;9.988;2023-05-27T04:26:13;17.20;75.60
14140;DHT22;7150;53.514;9.988;2023-05-27T04:28:39;17.20;75.60
14140;DHT22;7150;53.514;9.988;2023-05-27T04:31:06;17.20;75.60
14140;DHT22;7150;53.514;9.988;2023-05-27T04:33:44;17.20;75.60
14140;DHT22;7150;53.514;9.988;2023-05-27T04:36:10;17.20;75.60
14140;DHT22;7150;53.514;9.988;2023-05-27T04:38:35;17.20;75.50
14140;DHT22;7150;53.514;9.988;2023-05-27T04:41:01;17.20;75.60
14140;DHT22;7150;53.514;9.988;2023-05-27T04:43:27;17.20;75.60
14140;DHT22;7150;53.514;9.988;2023-05-27T04:45:55;17.20;75.50
14140;DHT22;7150;53.514;9.988;2023-05-27T04:48:22;17.30;75.60
14140;DHT22;7150;53.514;9.988;2023-05-27T04:50:49;17.30;76.30
14140;DHT22;7150;53.514;9.988;2023-05-27T04:53:18;17.30;75.70
14140;DHT22;7150;53.514;9.988;2023-05-27T04:55:43;17.30;75.60
14140;DHT22;7150;53.514;9.988;2023-05-27T04:58:10;17.30;75.60
14140;DHT22;7150;53.514;9.988;2023-05-27T05:00:35;17.40;75.80
14140;DHT22;7150;53.514;9.988;2023-05-27T05:03:14;17.40;75.80
14140;DHT22;7150;53.514;9.988;2023-05-27T05:05:49;17.40;75.80
14140;DHT22;7150;53.514;9.988;2023-05-27T05:08:16;17.40;75.90
14140;DHT22;7150;53.514;9.988;2023-05-27T05:10:42;17.40;75.90
14140;DHT22;7150;53.514;9.988;2023-05-27T05:13:08;17.50;76.10
14140;DHT22;7150;53.514;9.988;2023-05-27T05:15:33;17.50;76.10
14140;DHT22;7150;53.514;9.988;2023-05-27T05:17:59;17.50;76.10
14140;DHT22;7150;53.514;9.988;2023-05-27T05:20:25;17.50;76.20
14140;DHT22;7150;53.514;9.988;2023-05-27T05:22:50;17.60;76.30
14140;DHT22;7150;53.514;9.988;2023-05-27T05:25:16;17.60;76.40
14140;DHT22;7150;53.514;9.988;2023-05-27T05:27:41;17.60;76.50
14140;DHT22;7150;53.514;9.988;2023-05-27T05:30:07;17.60;76.50
14140;DHT22;7150;53.514;9.988;2023-05-27T05:32:33;17.60;76.50
14140;DHT22;7150;53.514;9.988;2023-05-27T05:34:58;17.70;76.60
14140;DHT22;7150;53.514;9.988;2023-05-27T05:37:24;17.70;76.60
14140;DHT22;7150;53.514;9.988;2023-05-27T05:39:49;17.70;76.60
14140;DHT22;7150;53.514;9.988;2023-05-27T05:42:15;17.70;76.50
14140;DHT22;7150;53.514;9.988;2023-05-27T05:44:41;17.80;76.70
14140;DHT22;7150;53.514;9.988;2023-05-27T05:47:07;17.80;76.60
14140;DHT22;7150;53.514;9.988;2023-05-27T05:49:32;17.80;76.60
14140;DHT22;7150;53.514;9.988;2023-05-27T05:51:58;17.90;76.60
14140;DHT22;7150;53.514;9.988;2023-05-27T05:54:23;17.90;76.50
14140;DHT22;7150;53.514;9.988;2023-05-27T05:56:49;17.90;76.40
14140;DHT22;7150;53.514;9.988;2023-05-27T05:59:14;18.00;76.60
14140;DHT22;7150;53.514;9.988;2023-05-27T06:01:40;18.00;76.50
14140;DHT22;7150;53.514;9.988;2023-05-27T06:04:05;18.00;76.40
14140;DHT22;7150;53.514;9.988;2023-05-27T06:06:32;18.00;76.30
14140;DHT22;7150;53.514;9.988;2023-05-27T06:08:57;18.10;76.20
14140;DHT22;7150;53.514;9.988;2023-05-27T06:11:23;18.10;76.40
14140;DHT22;7150;53.514;9.988;2023-05-27T06:13:48;18.10;76.50
14140;DHT22;7150;53.514;9.988;2023-05-27T06:16:14;18.10;76.60
14140;DHT22;7150;53.514;9.988;2023-05-27T06:18:39;18.20;76.60
14140;DHT22;7150;53.514;9.988;2023-05-27T06:21:05;18.20;76.50
14140;DHT22;7150;53.514;9.988;2023-05-27T06:23:31;18.20;76.50
14140;DHT22;7150;53.514;9.988;2023-05-27T06:25:56;18.20;76.40
14140;DHT22;7150;53.514;9.988;2023-05-27T06:28:22;18.30;76.50
14140;DHT22;7150;53.514;9.988;2023-05-27T06:30:47;18.30;76.60
14140;DHT22;7150;53.514;9.988;2023-05-27T06:33:13;18.30;76.50
14140;DHT22;7150;53.514;9.988;2023-05-27T06:35:38;18.40;76.60
14140;DHT22;7150;53.514;9.988;2023-05-27T06:38:05;18.40;76.60
14140;DHT22;7150;53.514;9.988;2023-05-27T06:40:30;18.50;76.60
14140;DHT22;7150;53.514;9.988;2023-05-27T06:42:56;18.50;76.40
14140;DHT22;7150;53.514;9.988;2023-05-27T06:45:22;18.50;76.30
14140;DHT22;7150;53.514;9.988;2023-05-27T06:47:47;18.60;76.40
14140;DHT22;7150;53.514;9.988;2023-05-27T06:50:13;18.60;76.30
14140;DHT22;7150;53.514;9.988;2023-05-27T06:52:38;18.70;76.30
14140;DHT22;7150;53.514;9.988;2023-05-27T06:55:04;18.70;76.30
14140;DHT22;7150;53.514;9.988;2023-05-27T06:57:30;18.70;76.20
14140;DHT22;7150;53.514;9.988;2023-05-27T06:59:55;18.80;76.40
14140;DHT22;7150;53.514;9.988;2023-05-27T07:02:21;18.80;76.30
14140;DHT22;7150;53.514;9.988;2023-05-27T07:04:47;18.90;76.40
14140;DHT22;7150;53.514;9.988;2023-05-27T07:07:12;18.90;76.30
14140;DHT22;7150;53.514;9.988;2023-05-27T07:09:38;19.00;76.30
14140;DHT22;7150;53.514;9.988;2023-05-27T07:12:03;19.00;76.20
14140;DHT22;7150;53.514;9.988;2023-05-27T07:14:29;19.00;76.10
14140;DHT22;7150;53.514;9.988;2023-05-27T07:16:54;19.10;76.20
14140;DHT22;7150;53.514;9.988;2023-05-27T07:19:21;19.10;76.10
14140;DHT22;7150;53.514;9.988;2023-05-27T07:21:47;19.20;76.20
14140;DHT22;7150;53.514;9.988;2023-05-27T07:24:13;19.20;76.20
14140;DHT22;7150;53.514;9.988;2023-05-27T07:26:38;19.20;76.20
14140;DHT22;7150;53.514;9.988;2023-05-27T07:29:05;19.30;76.30
14140;DHT22;7150;53.514;9.988;2023-05-27T07:31:30;19.30;76.30
14140;DHT22;7150;53.514;9.988;2023-05-27T07:33:56;19.40;76.60
14140;DHT22;7150;53.514;9.988;2023-05-27T07:36:21;19.40;76.50
14140;DHT22;7150;53.514;9.988;2023-05-27T07:38:47;19.50;76.50
14140;DHT22;7150;53.514;9.988;2023-05-27T07:41:13;19.50;76.30
14140;DHT22;7150;53.514;9.988;2023-05-27T07:43:39;19.50;76.30
14140;DHT22;7150;53.514;9.988;2023-05-27T07:46:05;19.50;76.30
14140;DHT22;7150;53.514;9.988;2023-05-27T07:48:31;19.60;76.30
14140;DHT22;7150;53.514;9.988;2023-05-27T07:50:56;19.60;76.90
14140;DHT22;7150;53.514;9.988;2023-05-27T07:53:22;19.70;76.20
14140;DHT22;7150;53.514;9.988;2023-05-27T07:55:47;19.70;76.00
14140;DHT22;7150;53.514;9.988;2023-05-27T07:58:13;19.70;75.90
14140;DHT22;7150;53.514;9.988;2023-05-27T08:00:39;19.70;75.70
14140;DHT22;7150;53.514;9.988;2023-05-27T08:03:04;19.80;75.60
14140;DHT22;7150;53.514;9.988;2023-05-27T08:05:30;19.80;75.60
14140;DHT22;7150;53.514;9.988;2023-05-27T08:07:56;19.80;75.40
14140;DHT22;7150;53.514;9.988;2023-05-27T08:10:21;19.90;75.40
14140;DHT22;7150;53.514;9.988;2023-05-27T08:12:47;19.90;75.30
14140;DHT22;7150;53.514;9.988;2023-05-27T08:15:12;19.90;75.80
14140;DHT22;7150;53.514;9.988;2023-05-27T08:17:38;20.00;74.90
14140;DHT22;7150;53.514;9.988;2023-05-27T08:20:04;20.00;74.70
14140;DHT22;7150;53.514;9.988;2023-05-27T08:22:31;20.00;74.60
14140;DHT22;7150;53.514;9.988;2023-05-27T08:24:57;20.00;74.50
14140;DHT22;7150;53.514;9.988;2023-05-27T08:27:42;20.00;74.30
14140;DHT22;7150;53.514;9.988;2023-05-27T08:30:08;20.10;74.30
14140;DHT22;7150;53.514;9.988;2023-05-27T08:32:34;20.10;74.20
14140;DHT22;7150;53.514;9.988;2023-05-27T08:34:59;20.10;74.10
14140;DHT22;7150;53.514;9.988;2023-05-27T08:37:25;20.10;73.60
14140;DHT22;7150;53.514;9.988;2023-05-27T08:39:51;20.10;73.60
14140;DHT22;7150;53.514;9.988;2023-05-27T08:42:16;20.20;73.50
14140;DHT22;7150;53.514;9.988;2023-05-27T08:44:42;20.20;73.50
14140;DHT22;7150;53.514;9.988;2023-05-27T08:47:07;20.30;73.30
14140;DHT22;7150;53.514;9.988;2023-05-27T08:49:33;20.30;73.00
14140;DHT22;7150;53.514;9.988;2023-05-27T08:52:00;20.30;73.00
14140;DHT22;7150;53.514;9.988;2023-05-27T08:54:27;20.30;72.90
14140;DHT22;7150;53.514;9.988;2023-05-27T08:56:55;20.30;72.70
14140;DHT22;7150;53.514;9.988;2023-05-27T08:59:21;20.40;72.90
14140;DHT22;7150;53.514;9.988;2023-05-27T09:01:47;20.40;72.70
14140;DHT22;7150;53.514;9.988;2023-05-27T09:04:13;20.50;71.80
14140;DHT22;7150;53.514;9.988;2023-05-27T09:06:38;20.50;71.30
14140;DHT22;7150;53.514;9.988;2023-05-27T09:09:07;20.50;71.10
14140;DHT22;7150;53.514;9.988;2023-05-27T09:11:33;20.50;71.20
14140;DHT22;7150;53.514;9.988;2023-05-27T09:14:01;20.40;71.10
14140;DHT22;7150;53.514;9.988;2023-05-27T09:16:26;20.40;71.00
14140;DHT22;7150;53.514;9.988;2023-05-27T09:18:52;20.40;71.20
14140;DHT22;7150;53.514;9.988;2023-05-27T09:21:17;20.30;71.20
14140;DHT22;7150;53.514;9.988;2023-05-27T09:23:43;20.40;71.30
14140;DHT22;7150;53.514;9.988;2023-05-27T09:26:09;20.40;71.00
14140;DHT22;7150;53.514;9.988;2023-05-27T09:28:36;20.40;71.00
14140;DHT22;7150;53.514;9.988;2023-05-27T09:31:04;20.40;70.90
14140;DHT22;7150;53.514;9.988;2023-05-27T09:33:31;20.40;70.60
14140;DHT22;7150;53.514;9.988;2023-05-27T09:35:59;20.40;70.70
14140;DHT22;7150;53.514;9.988;2023-05-27T09:38:27;20.40;70.80
14140;DHT22;7150;53.514;9.988;2023-05-27T09:40:53;20.40;70.90
14140;DHT22;7150;53.514;9.988;2023-05-27T09:43:19;20.40;70.80
14140;DHT22;7150;53.514;9.988;2023-05-27T09:45:45;20.50;70.80
14140;DHT22;7150;53.514;9.988;2023-05-27T09:48:12;20.50;70.60
14140;DHT22;7150;53.514;9.988;2023-05-27T09:50:40;20.50;70.60
14140;DHT22;7150;53.514;9.988;2023-05-27T09:53:06;20.60;70.40
14140;DHT22;7150;53.514;9.988;2023-05-27T09:55:33;20.60;70.30
14140;DHT22;7150;53.514;9.988;2023-05-27T09:57:58;20.70;70.10
14140;DHT22;7150;53.514;9.988;2023-05-27T10:00:26;20.70;69.70
14140;DHT22;7150;53.514;9.988;2023-05-27T10:02:52;20.80;69.20
14140;DHT22;7150;53.514;9.988;2023-05-27T10:05:18;20.90;69.10
14140;DHT22;7150;53.514;9.988;2023-05-27T10:07:46;20.90;69.10
14140;DHT22;7150;53.514;9.988;2023-05-27T10:10:17;21.00;67.80
14140;DHT22;7150;53.514;9.988;2023-05-27T10:12:44;21.10;67.10
14140;DHT22;7150;53.514;9.988;2023-05-27T10:15:27;21.10;66.60
14140;DHT22;7150;53.514;9.988;2023-05-27T10:17:56;21.10;66.90
14140;DHT22;7150;53.514;9.988;2023-05-27T10:20:41;21.10;67.10
14140;DHT22;7150;53.514;9.988;2023-05-27T10:23:21;21.10;67.00
14140;DHT22;7150;53.514;9.988;2023-05-27T10:25:51;21.10;67.00
14140;DHT22;7150;53.514;9.988;2023-05-27T10:30:50;21.10;66.60
14140;DHT22;7150;53.514;9.988;2023-05-27T10:33:16;21.10;66.60
14140;DHT22;7150;53.514;9.988;2023-05-27T10:35:42;21.10;65.40
14140;DHT22;7150;53.514;9.988;2023-05-27T10:38:18;21.10;65.10
14140;DHT22;7150;53.514;9.988;2023-05-27T10:40:45;21.10;65.00
14140;DHT22;7150;53.514;9.988;2023-05-27T10:43:18;21.10;64.90
14140;DHT22;7150;53.514;9.988;2023-05-27T10:45:47;21.20;64.50
14140;DHT22;7150;53.514;9.988;2023-05-27T10:48:18;21.20;64.00
14140;DHT22;7150;53.514;9.988;2023-05-27T10:50:53;21.20;64.10
14140;DHT22;7150;53.514;9.988;2023-05-27T10:53:19;21.30;64.30
14140;DHT22;7150;53.514;9.988;2023-05-27T10:55:48;21.40;63.90
14140;DHT22;7150;53.514;9.988;2023-05-27T10:58:19;21.50;62.50
14140;DHT22;7150;53.514;9.988;2023-05-27T11:00:47;21.50;62.20
14140;DHT22;7150;53.514;9.988;2023-05-27T11:03:25;21.50;62.10
14140;DHT22;7150;53.514;9.988;2023-05-27T11:06:00;21.70;62.30
14140;DHT22;7150;53.514;9.988;2023-05-27T11:08:27;21.70;62.00
14140;DHT22;7150;53.514;9.988;2023-05-27T11:13:40;21.80;60.70
14140;DHT22;7150;53.514;9.988;2023-05-27T11:16:07;21.80;61.00
14140;DHT22;7150;53.514;9.988;2023-05-27T11:18:46;21.80;61.00
14140;DHT22;7150;53.514;9.988;2023-05-27T11:21:13;21.90;60.90
14140;DHT22;7150;53.514;9.988;2023-05-27T11:23:46;21.90;61.10
14140;DHT22;7150;53.514;9.988;2023-05-27T11:28:47;22.00;60.70
14140;DHT22;7150;53.514;9.988;2023-05-27T11:31:13;22.10;60.60
14140;DHT22;7150;53.514;9.988;2023-05-27T11:33:44;22.10;60.40
14140;DHT22;7150;53.514;9.988;2023-05-27T11:36:14;22.30;60.10
14140;DHT22;7150;53.514;9.988;2023-05-27T11:38:52;22.30;59.70
14140;DHT22;7150;53.514;9.988;2023-05-27T11:41:19;22.40;59.50
14140;DHT22;7150;53.514;9.988;2023-05-27T11:44:08;22.40;60.00
14140;DHT22;7150;53.514;9.988;2023-05-27T11:46:41;22.50;60.10
14140;DHT22;7150;53.514;9.988;2023-05-27T11:49:08;22.60;59.70
14140;DHT22;7150;53.514;9.988;2023-05-27T11:51:36;23.00;58.40
14140;DHT22;7150;53.514;9.988;2023-05-27T11:54:02;23.10;58.70
14140;DHT22;7150;53.514;9.988;2023-05-27T11:56:28;23.40;59.10
14140;DHT22;7150;53.514;9.988;2023-05-27T11:58:54;23.80;58.90
14140;DHT22;7150;53.514;9.988;2023-05-27T12:01:20;24.20;58.60
14140;DHT22;7150;53.514;9.988;2023-05-27T12:03:46;24.40;57.40
14140;DHT22;7150;53.514;9.988;2023-05-27T12:06:11;24.70;57.00
14140;DHT22;7150;53.514;9.988;2023-05-27T12:08:37;25.00;56.30
14140;DHT22;7150;53.514;9.988;2023-05-27T12:11:04;25.40;55.90
14140;DHT22;7150;53.514;9.988;2023-05-27T12:13:30;26.00;55.50
14140;DHT22;7150;53.514;9.988;2023-05-27T12:15:57;26.30;54.50
14140;DHT22;7150;53.514;9.988;2023-05-27T12:18:23;26.40;54.20
14140;DHT22;7150;53.514;9.988;2023-05-27T12:20:49;26.20;54.20
14140;DHT22;7150;53.514;9.988;2023-05-27T12:23:14;26.00;54.60
14140;DHT22;7150;53.514;9.988;2023-05-27T12:25:40;25.80;54.20
14140;DHT22;7150;53.514;9.988;2023-05-27T12:28:09;25.60;54.50
14140;DHT22;7150;53.514;9.988;2023-05-27T12:30:36;25.70;54.80
14140;DHT22;7150;53.514;9.988;2023-05-27T12:33:05;25.90;54.70
14140;DHT22;7150;53.514;9.988;2023-05-27T12:35:31;26.20;54.70
14140;DHT22;7150;53.514;9.988;2023-05-27T12:37:58;26.40;55.20
14140;DHT22;7150;53.514;9.988;2023-05-27T12:40:24;26.60;54.10
14140;DHT22;7150;53.514;9.988;2023-05-27T12:42:50;26.50;54.00
14140;DHT22;7150;53.514;9.988;2023-05-27T12:45:15;26.40;54.00
14140;DHT22;7150;53.514;9.988;2023-05-27T12:47:41;26.20;53.40
14140;DHT22;7150;53.514;9.988;2023-05-27T12:50:07;25.90;53.70
14140;DHT22;7150;53.514;9.988;2023-05-27T12:52:33;25.70;53.40
14140;DHT22;7150;53.514;9.988;2023-05-27T12:54:59;25.60;54.70
14140;DHT22;7150;53.514;9.988;2023-05-27T12:57:24;25.40;54.80
14140;DHT22;7150;53.514;9.988;2023-05-27T12:59:50;25.20;54.90
14140;DHT22;7150;53.514;9.988;2023-05-27T13:02:16;25.20;55.00
14140;DHT22;7150;53.514;9.988;2023-05-27T13:04:41;25.10;55.40
14140;DHT22;7150;53.514;9.988;2023-05-27T13:07:11;24.90;55.20
14140;DHT22;7150;53.514;9.988;2023-05-27T13:09:40;24.90;56.30
14140;DHT22;7150;53.514;9.988;2023-05-27T13:12:06;24.80;56.80
14140;DHT22;7150;53.514;9.988;2023-05-27T13:14:31;24.80;57.10
14140;DHT22;7150;53.514;9.988;2023-05-27T13:16:57;24.80;56.80
14140;DHT22;7150;53.514;9.988;2023-05-27T13:19:22;24.80;56.80
14140;DHT22;7150;53.514;9.988;2023-05-27T13:21:49;24.90;57.40
14140;DHT22;7150;53.514;9.988;2023-05-27T13:24:14;24.90;57.20
14140;DHT22;7150;53.514;9.988;2023-05-27T13:26:40;24.90;56.50
14140;DHT22;7150;53.514;9.988;2023-05-27T13:29:05;24.80;56.40
14140;DHT22;7150;53.514;9.988;2023-05-27T13:31:31;24.80;56.10
14140;DHT22;7150;53.514;9.988;2023-05-27T13:33:57;24.90;56.40
14140;DHT22;7150;53.514;9.988;2023-05-27T13:36:23;24.90;57.10
14140;DHT22;7150;53.514;9.988;2023-05-27T13:38:49;24.80;57.30
14140;DHT22;7150;53.514;9.988;2023-05-27T13:41:14;24.80;57.40
14140;DHT22;7150;53.514;9.988;2023-05-27T13:43:40;24.90;57.50
14140;DHT22;7150;53.514;9.988;2023-05-27T13:46:05;24.90;57.80
14140;DHT22;7150;53.514;9.988;2023-05-27T13:48:31;24.90;57.80
14140;DHT22;7150;53.514;9.988;2023-05-27T13:50:57;24.90;57.80
14140;DHT22;7150;53.514;9.988;2023-05-27T13:53:23;24.90;57.70
14140;DHT22;7150;53.514;9.988;2023-05-27T13:55:49;25.00;57.60
14140;DHT22;7150;53.514;9.988;2023-05-27T13:58:14;25.10;57.40
14140;DHT22;7150;53.514;9.988;2023-05-27T14:00:40;25.20;57.30
14140;DHT22;7150;53.514;9.988;2023-05-27T14:03:06;25.20;57.10
14140;DHT22;7150;53.514;9.988;2023-05-27T14:05:32;25.20;57.30
14140;DHT22;7150;53.514;9.988;2023-05-27T14:07:57;25.20;57.60
14140;DHT22;7150;53.514;9.988;2023-05-27T14:10:23;25.50;57.00
14140;DHT22;7150;53.514;9.988;2023-05-27T14:12:48;25.70;56.80
14140;DHT22;7150;53.514;9.988;2023-05-27T14:15:14;25.90;57.10
14140;DHT22;7150;53.514;9.988;2023-05-27T14:17:39;26.20;56.40
14140;DHT22;7150;53.514;9.988;2023-05-27T14:20:05;26.70;55.00
14140;DHT22;7150;53.514;9.988;2023-05-27T14:22:36;27.20;54.20
14140;DHT22;7150;53.514;9.988;2023-05-27T14:25:03;27.60;53.60
14140;DHT22;7150;53.514;9.988;2023-05-27T14:27:28;28.00;53.60
14140;DHT22;7150;53.514;9.988;2023-05-27T14:29:54;28.40;53.50
14140;DHT22;7150;53.514;9.988;2023-05-27T14:32:19;28.60;52.40
14140;DHT22;7150;53.514;9.988;2023-05-27T14:34:45;28.80;52.40
14140;DHT22;7150;53.514;9.988;2023-05-27T14:37:10;28.80;51.00
14140;DHT22;7150;53.514;9.988;2023-05-27T14:39:36;28.70;50.60
14140;DHT22;7150;53.514;9.988;2023-05-27T14:42:01;28.40;50.90
14140;DHT22;7150;53.514;9.988;2023-05-27T14:44:27;28.20;50.70
14140;DHT22;7150;53.514;9.988;2023-05-27T14:46:52;27.90;51.40
14140;DHT22;7150;53.514;9.988;2023-05-27T14:49:18;27.80;52.10
14140;DHT22;7150;53.514;9.988;2023-05-27T14:51:43;27.80;52.00
14140;DHT22;7150;53.514;9.988;2023-05-27T14:54:09;27.80;51.70
14140;DHT22;7150;53.514;9.988;2023-05-27T14:56:35;27.90;52.80
14140;DHT22;7150;53.514;9.988;2023-05-27T14:59:01;28.30;53.10
14140;DHT22;7150;53.514;9.988;2023-05-27T15:01:27;29.00;52.20
14140;DHT22;7150;53.514;9.988;2023-05-27T15:03:52;29.90;51.60
14140;DHT22;7150;53.514;9.988;2023-05-27T15:06:18;31.10;49.30
14140;DHT22;7150;53.514;9.988;2023-05-27T15:08:43;32.20;48.90
14140;DHT22;7150;53.514;9.988;2023-05-27T15:11:09;33.30;46.40
14140;DHT22;7150;53.514;9.988;2023-05-27T15:13:35;34.20;45.90
14140;DHT22;7150;53.514;9.988;2023-05-27T15:16:00;35.20;44.60
14140;DHT22;7150;53.514;9.988;2023-05-27T15:18:26;35.80;43.80
14140;DHT22;7150;53.514;9.988;2023-05-27T15:20:51;36.60;43.30
14140;DHT22;7150;53.514;9.988;2023-05-27T15:23:17;37.50;42.30
14140;DHT22;7150;53.514;9.988;2023-05-27T15:25:42;38.00;40.00
14140;DHT22;7150;53.514;9.988;2023-05-27T15:28:08;38.30;40.20
14140;DHT22;7150;53.514;9.988;2023-05-27T15:30:37;38.60;39.40
14140;DHT22;7150;53.514;9.988;2023-05-27T15:33:02;38.90;39.50
14140;DHT22;7150;53.514;9.988;2023-05-27T15:35:28;39.20;38.80
14140;DHT22;7150;53.514;9.988;2023-05-27T15:37:53;39.50;38.00
14140;DHT22;7150;53.514;9.988;2023-05-27T15:40:19;39.60;38.10
14140;DHT22;7150;53.514;9.988;2023-05-27T15:42:45;39.60;37.80
14140;DHT22;7150;53.514;9.988;2023-05-27T15:45:10;39.70;37.90
14140;DHT22;7150;53.514;9.988;2023-05-27T15:47:36;39.90;37.80
14140;DHT22;7150;53.514;9.988;2023-05-27T15:50:02;40.10;37.60
14140;DHT22;7150;53.514;9.988;2023-05-27T15:52:28;40.10;37.20